createdAt,value
2022-09-18T00:01:39.270Z,100133.19
2022-09-18T00:04:10.992Z,100138.47
2022-09-18T00:06:41.242Z,100137.59
2022-09-18T00:09:14.443Z,100133.19
2022-09-18T00:11:46.898Z,100134.06
2022-09-18T00:14:20.010Z,100127.03
2022-09-18T00:16:48.487Z,100131.44
2022-09-18T00:19:18.035Z,100138.50
2022-09-18T00:21:49.742Z,100127.91
2022-09-18T00:24:18.916Z,100132.31
2022-09-18T00:26:48.075Z,100136.72
2022-09-18T00:29:18.045Z,100137.59
2022-09-18T00:31:46.595Z,100144.69
2022-09-18T00:34:15.794Z,100141.16
2022-09-18T00:36:43.933Z,100143.78
2022-09-18T00:39:13.090Z,100139.38
2022-09-18T00:41:44.059Z,100144.66
2022-09-18T00:44:29.892Z,100149.09
2022-09-18T00:47:29.038Z,100155.25
2022-09-18T00:50:10.132Z,100150.84
2022-09-18T00:52:54.478Z,100158.78
2022-09-18T00:55:29.307Z,100153.47
2022-09-18T00:58:00.632Z,100157.00
2022-09-18T01:00:29.810Z,100162.31
2022-09-18T01:02:59.559Z,100163.19
2022-09-18T01:05:54.431Z,100172.00
2022-09-18T01:08:56.705Z,100172.91
2022-09-18T01:11:51.745Z,100172.91
2022-09-18T01:14:41.562Z,100169.38
2022-09-18T01:17:16.225Z,100173.78
2022-09-18T01:20:41.465Z,100172.03
2022-09-18T01:23:49.376Z,100177.31
2022-09-18T01:26:50.147Z,100180.84
2022-09-18T01:29:32.740Z,100186.13
2022-09-18T01:32:28.063Z,100193.19
2022-09-18T01:35:40.105Z,100202.03
2022-09-18T01:38:27.357Z,100202.91
2022-09-18T01:41:16.893Z,100195.84
2022-09-18T01:43:45.832Z,100207.31
2022-09-18T01:46:19.671Z,100216.13
2022-09-18T01:48:59.941Z,100220.56
2022-09-18T01:52:18.342Z,100205.56
2022-09-18T01:54:50.237Z,100217.03
2022-09-18T01:57:52.237Z,100216.16
2022-09-18T02:00:21.919Z,100231.16
2022-09-18T02:03:03.390Z,100223.19
2022-09-18T02:06:03.281Z,100217.91
2022-09-18T02:08:41.409Z,100235.53
2022-09-18T02:11:13.323Z,100231.13
2022-09-18T02:14:06.346Z,100243.47
2022-09-18T02:17:11.489Z,100237.28
2022-09-18T02:19:57.626Z,100242.56
2022-09-18T02:22:30.547Z,100245.22
2022-09-18T02:25:04.235Z,100245.22
2022-09-18T02:27:34.491Z,100246.09
2022-09-18T02:30:05.762Z,100248.75
2022-09-18T02:32:39.578Z,100246.09
2022-09-18T02:35:10.173Z,100248.72
2022-09-18T02:37:47.898Z,100246.97
2022-09-18T02:40:33.323Z,100248.72
2022-09-18T02:43:40.419Z,100235.50
2022-09-18T02:46:21.748Z,100238.13
2022-09-18T02:49:17.242Z,100241.66
2022-09-18T02:51:59.402Z,100238.13
2022-09-18T02:54:41.240Z,100246.97
2022-09-18T02:57:20.397Z,100242.53
2022-09-18T02:59:56.094Z,100239.88
2022-09-18T03:02:25.839Z,100238.13
2022-09-18T03:04:54.412Z,100239.00
2022-09-18T03:07:29.252Z,100232.84
2022-09-18T03:09:59.387Z,100237.25
2022-09-18T03:12:27.305Z,100245.19
2022-09-18T03:14:55.250Z,100245.19
2022-09-18T03:17:24.857Z,100244.31
2022-09-18T03:19:54.129Z,100246.06
2022-09-18T03:22:21.974Z,100242.56
2022-09-18T03:25:35.537Z,100242.59
2022-09-18T03:28:04.776Z,100226.72
2022-09-18T03:30:37.783Z,100230.25
2022-09-18T03:33:06.184Z,100231.13
2022-09-18T03:35:34.342Z,100227.59
2022-09-18T03:38:02.341Z,100225.81
2022-09-18T03:40:32.169Z,100234.63
2022-09-18T03:43:04.862Z,100232.88
2022-09-18T03:45:32.905Z,100244.31
2022-09-18T03:48:03.187Z,100241.66
2022-09-18T03:50:31.405Z,100251.34
2022-09-18T03:52:59.325Z,100257.53
2022-09-18T03:55:47.080Z,100264.59
2022-09-18T03:58:35.074Z,100269.00
2022-09-18T04:01:13.863Z,100265.47
2022-09-18T04:04:07.413Z,100277.84
2022-09-18T04:07:00.933Z,100269.88
2022-09-18T04:09:49.081Z,100280.47
2022-09-18T04:12:17.328Z,100279.63
2022-09-18T04:14:48.662Z,100280.50
2022-09-18T04:17:16.638Z,100289.31
2022-09-18T04:19:44.431Z,100289.28
2022-09-18T04:22:12.423Z,100291.94
2022-09-18T04:24:40.974Z,100299.84
2022-09-18T04:27:09.044Z,100298.97
2022-09-18T04:29:38.568Z,100307.78
2022-09-18T04:32:08.340Z,100308.69
2022-09-18T04:34:36.491Z,100303.41
2022-09-18T04:37:09.405Z,100305.16
2022-09-18T04:39:38.381Z,100299.88
2022-09-18T04:42:06.423Z,100299.88
2022-09-18T04:44:34.469Z,100291.94
2022-09-18T04:47:02.436Z,100296.34
2022-09-18T04:49:30.334Z,100302.53
2022-09-18T04:51:58.148Z,100290.22
2022-09-18T04:54:26.225Z,100294.63
2022-09-18T04:56:54.472Z,100284.94
2022-09-18T04:59:22.914Z,100284.97
2022-09-18T05:01:55.246Z,100287.63
2022-09-18T05:04:23.498Z,100289.38
2022-09-18T05:06:57.813Z,100286.75
2022-09-18T05:09:26.113Z,100286.75
2022-09-18T05:11:54.611Z,100285.84
2022-09-18T05:14:24.785Z,100291.16
2022-09-18T05:16:56.720Z,100285.00
2022-09-18T05:19:37.722Z,100288.50
2022-09-18T05:22:11.673Z,100291.16
2022-09-18T05:24:44.076Z,100299.97
2022-09-18T05:27:14.308Z,100303.50
2022-09-18T05:29:42.873Z,100310.56
2022-09-18T05:32:20.197Z,100314.09
2022-09-18T05:34:50.202Z,100320.28
2022-09-18T05:37:19.257Z,100319.41
2022-09-18T05:39:51.809Z,100322.91
2022-09-18T05:42:19.668Z,100326.44
2022-09-18T05:44:47.694Z,100332.59
2022-09-18T05:47:21.038Z,100333.50
2022-09-18T05:49:49.232Z,100341.41
2022-09-18T05:52:16.925Z,100339.66
2022-09-18T05:54:45.502Z,100343.19
2022-09-18T05:57:13.624Z,100344.06
2022-09-18T05:59:41.807Z,100346.72
2022-09-18T06:02:14.596Z,100349.38
2022-09-18T06:05:01.189Z,100360.00
2022-09-18T06:07:29.034Z,100346.75
2022-09-18T06:09:59.230Z,100353.84
2022-09-18T06:12:27.902Z,100353.84
2022-09-18T06:14:56.169Z,100352.97
2022-09-18T06:17:27.906Z,100358.28
2022-09-18T06:20:00.733Z,100355.66
2022-09-18T06:22:28.949Z,100360.06
2022-09-18T06:24:58.456Z,100364.47
2022-09-18T06:27:33.890Z,100359.22
2022-09-18T06:30:02.877Z,100368.94
2022-09-18T06:32:34.497Z,100359.22
2022-09-18T06:35:02.648Z,100358.34
2022-09-18T06:37:30.421Z,100362.78
2022-09-18T06:40:11.790Z,100356.63
2022-09-18T06:43:05.812Z,100368.09
2022-09-18T06:46:05.769Z,100353.97
2022-09-18T06:48:40.716Z,100356.66
2022-09-18T06:51:09.895Z,100361.09
2022-09-18T06:53:58.087Z,100354.94
2022-09-18T06:56:26.319Z,100364.69
2022-09-18T06:58:55.659Z,100362.03
2022-09-18T07:01:24.041Z,100356.75
2022-09-18T07:04:03.707Z,100363.81
2022-09-18T07:06:45.779Z,100366.50
2022-09-18T07:09:15.478Z,100371.78
2022-09-18T07:12:04.767Z,100370.91
2022-09-18T07:14:47.084Z,100378.88
2022-09-18T07:17:18.655Z,100363.84
2022-09-18T07:19:49.944Z,100362.09
2022-09-18T07:22:20.143Z,100357.69
2022-09-18T07:24:51.619Z,100385.09
2022-09-18T07:27:19.874Z,100364.75
2022-09-18T07:29:50.420Z,100371.84
2022-09-18T07:32:22.235Z,100378.91
2022-09-18T07:34:50.885Z,100388.63
2022-09-18T07:37:30.250Z,100389.53
2022-09-18T07:40:36.944Z,100376.25
2022-09-18T07:43:10.956Z,100372.72
2022-09-18T07:45:45.828Z,100371.84
2022-09-18T07:48:14.373Z,100377.13
2022-09-18T07:50:47.692Z,100365.63
2022-09-18T07:53:18.669Z,100358.56
2022-09-18T07:55:49.821Z,100370.94
2022-09-18T07:58:19.605Z,100377.13
2022-09-18T08:01:03.348Z,100346.16
2022-09-18T08:03:35.076Z,100339.09
2022-09-18T08:06:12.446Z,100355.00
2022-09-18T08:08:59.727Z,100375.34
2022-09-18T08:11:56.225Z,100387.75
2022-09-18T08:14:47.677Z,100393.03
2022-09-18T08:17:26.344Z,100374.47
2022-09-18T08:20:07.053Z,100379.78
2022-09-18T08:22:55.892Z,100370.03
2022-09-18T08:25:27.789Z,100368.28
2022-09-18T08:28:04.893Z,100380.66
2022-09-18T08:30:47.851Z,100360.31
2022-09-18T08:33:16.172Z,100374.41
2022-09-18T08:35:44.428Z,100371.75
2022-09-18T08:38:25.646Z,100356.69
2022-09-18T08:41:26.669Z,100351.34
2022-09-18T08:44:05.144Z,100324.75
2022-09-18T08:47:00.664Z,100335.28
2022-09-18T08:49:45.218Z,100355.59
2022-09-18T08:52:23.006Z,100338.75
2022-09-18T08:55:31.136Z,100314.00
2022-09-18T08:58:56.341Z,100299.81
2022-09-18T09:02:09.664Z,100310.34
2022-09-18T09:04:37.801Z,100312.94
2022-09-18T09:07:39.878Z,100325.28
2022-09-18T09:10:31.061Z,100311.13
2022-09-18T09:13:17.973Z,100274.97
2022-09-18T09:15:54.588Z,100281.13
2022-09-18T09:19:13.487Z,100263.38
2022-09-18T09:22:23.155Z,100309.16
2022-09-18T09:25:06.329Z,100284.31
2022-09-18T09:29:00.612Z,100279.00
2022-09-18T09:32:21.248Z,100266.44
2022-09-18T09:35:26.271Z,100243.38
2022-09-18T09:38:42.684Z,100227.38
2022-09-18T09:41:39.188Z,100241.50
2022-09-18T09:44:49.857Z,100207.91
2022-09-18T09:47:57.900Z,100183.06
2022-09-18T09:50:31.415Z,100200.66
2022-09-18T09:53:04.745Z,100242.97
2022-09-18T09:55:43.269Z,100168.84
2022-09-18T09:58:35.968Z,100221.63
2022-09-18T10:01:46.727Z,100202.09
2022-09-18T10:04:51.894Z,100170.19
2022-09-18T10:07:46.995Z,100142.88
2022-09-18T10:10:41.745Z,100163.09
2022-09-18T10:13:40.051Z,100138.28
2022-09-18T10:16:22.280Z,100144.31
2022-09-18T10:18:51.108Z,100168.88
2022-09-18T10:21:24.526Z,100135.25
2022-09-18T10:24:08.433Z,100168.66
2022-09-18T10:26:54.838Z,100141.94
2022-09-18T10:29:23.104Z,100101.34
2022-09-18T10:31:59.083Z,100137.31
2022-09-18T10:34:49.724Z,100107.75
2022-09-18T10:37:30.418Z,100118.81
2022-09-18T10:40:05.429Z,100166.94
2022-09-18T10:42:37.060Z,100066.03
2022-09-18T10:45:30.803Z,100108.28
2022-09-18T10:48:23.913Z,100090.13
2022-09-18T10:51:00.990Z,100015.59
2022-09-18T10:53:43.669Z,100023.88
2022-09-18T10:56:21.821Z,99987.00
2022-09-18T10:58:53.668Z,99953.53
2022-09-18T11:01:27.702Z,99967.56
2022-09-18T11:04:04.080Z,99923.75
2022-09-18T11:06:37.650Z,99907.69
2022-09-18T11:09:27.428Z,99935.25
2022-09-18T11:11:56.244Z,99992.03
2022-09-18T11:14:33.535Z,99997.91
2022-09-18T11:17:05.837Z,99903.41
2022-09-18T11:19:40.870Z,99890.34
2022-09-18T11:22:34.258Z,99857.81
2022-09-18T11:25:15.453Z,99849.31
2022-09-18T11:27:53.796Z,99833.69
2022-09-18T11:30:28.051Z,99835.53
2022-09-18T11:33:10.329Z,99830.31
2022-09-18T11:35:46.772Z,99830.41
2022-09-18T11:38:20.068Z,99834.88
2022-09-18T11:40:55.516Z,99839.38
2022-09-18T11:43:34.924Z,99817.25
2022-09-18T11:46:47.768Z,99831.34
2022-09-18T11:49:22.465Z,99836.47
2022-09-18T11:51:58.382Z,99814.28
2022-09-18T11:54:56.428Z,99814.28
2022-09-18T11:57:40.144Z,99805.28
2022-09-18T12:00:12.860Z,99784.88
2022-09-18T12:03:05.905Z,99824.56
2022-09-18T12:05:59.053Z,99838.50
2022-09-18T12:08:55.019Z,99766.97
2022-09-18T12:11:51.320Z,99803.06
2022-09-18T12:15:20.001Z,99779.28
2022-09-18T12:18:03.720Z,99746.56
2022-09-18T12:20:44.572Z,99745.59
2022-09-18T12:23:23.975Z,99727.91
2022-09-18T12:26:13.426Z,99720.84
2022-09-18T12:29:19.038Z,99726.22
2022-09-18T12:32:24.884Z,99741.22
2022-09-18T12:35:39.663Z,99711.09
2022-09-18T12:38:19.069Z,99717.25
2022-09-18T12:41:28.860Z,99726.97
2022-09-18T12:44:11.205Z,99725.38
2022-09-18T12:47:02.324Z,99693.50
2022-09-18T12:49:55.494Z,99690.78
2022-09-18T12:52:32.932Z,99688.94
2022-09-18T12:55:27.837Z,99682.69
2022-09-18T12:58:43.668Z,99690.63
2022-09-18T13:01:50.304Z,99642.72
2022-09-18T13:04:33.412Z,99661.38
2022-09-18T13:07:46.972Z,99622.66
2022-09-18T13:10:31.005Z,99615.50
2022-09-18T13:13:09.533Z,99623.53
2022-09-18T13:16:03.426Z,99633.38
2022-09-18T13:18:40.516Z,99598.94
2022-09-18T13:21:30.110Z,99587.50
2022-09-18T13:23:59.691Z,99601.56
2022-09-18T13:26:32.373Z,99631.81
2022-09-18T13:29:01.025Z,99623.81
2022-09-18T13:31:38.043Z,99577.50
2022-09-18T13:34:18.371Z,99582.91
2022-09-18T13:36:47.399Z,99589.06
2022-09-18T13:39:19.139Z,99578.38
2022-09-18T13:41:53.245Z,99573.19
2022-09-18T13:44:28.195Z,99568.59
2022-09-18T13:47:09.950Z,99572.97
2022-09-18T13:50:00.915Z,99535.81
2022-09-18T13:52:35.028Z,99501.94
2022-09-18T13:55:25.328Z,99526.69
2022-09-18T13:58:31.154Z,99502.94
2022-09-18T14:01:10.487Z,99504.56
2022-09-18T14:03:42.366Z,99484.22
2022-09-18T14:06:35.155Z,99507.94
2022-09-18T14:09:55.434Z,99525.88
2022-09-18T14:12:25.536Z,99513.50
2022-09-18T14:15:21.144Z,99459.38
2022-09-18T14:18:16.563Z,99449.59
2022-09-18T14:20:52.493Z,99459.44
2022-09-18T14:23:35.988Z,99434.66
2022-09-18T14:26:31.174Z,99434.75
2022-09-18T14:29:27.217Z,99407.25
2022-09-18T14:31:58.131Z,99384.09
2022-09-18T14:34:37.661Z,99393.88
2022-09-18T14:37:29.552Z,99408.19
2022-09-18T14:39:59.367Z,99378.78
2022-09-18T14:42:38.683Z,99367.19
2022-09-18T14:45:13.008Z,99364.56
2022-09-18T14:47:44.458Z,99394.06
2022-09-18T14:50:35.064Z,99390.53
2022-09-18T14:53:21.864Z,99390.44
2022-09-18T14:55:56.155Z,99380.69
2022-09-18T14:58:36.928Z,99377.09
2022-09-18T15:01:19.130Z,99360.19
2022-09-18T15:03:50.623Z,99386.94
2022-09-18T15:06:45.308Z,99384.38
2022-09-18T15:09:16.917Z,99372.78
2022-09-18T15:12:01.821Z,99343.50
2022-09-18T15:14:46.775Z,99336.25
2022-09-18T15:17:25.264Z,99314.13
2022-09-18T15:20:14.396Z,99304.47
2022-09-18T15:22:42.887Z,99293.81
2022-09-18T15:25:20.692Z,99275.13
2022-09-18T15:27:49.321Z,99289.44
2022-09-18T15:30:23.907Z,99324.31
2022-09-18T15:32:56.615Z,99289.66
2022-09-18T15:35:30.061Z,99272.91
2022-09-18T15:38:03.438Z,99264.94
2022-09-18T15:40:36.069Z,99279.38
2022-09-18T15:43:11.356Z,99261.53
2022-09-18T15:45:39.583Z,99254.50
2022-09-18T15:48:39.675Z,99240.06
2022-09-18T15:51:25.844Z,99212.72
2022-09-18T15:54:12.739Z,99230.88
2022-09-18T15:57:01.114Z,99222.81
2022-09-18T15:59:37.085Z,99207.59
2022-09-18T16:02:37.758Z,99200.69
2022-09-18T16:05:14.963Z,99221.13
2022-09-18T16:07:58.034Z,99224.72
2022-09-18T16:10:35.066Z,99248.81
2022-09-18T16:13:26.823Z,99248.78
2022-09-18T16:16:24.425Z,99256.16
2022-09-18T16:18:56.840Z,99252.56
2022-09-18T16:21:28.090Z,99267.63
2022-09-18T16:24:01.640Z,99275.59
2022-09-18T16:26:35.973Z,99301.56
2022-09-18T16:29:13.465Z,99285.50
2022-09-18T16:31:41.696Z,99273.91
2022-09-18T16:34:21.592Z,99300.50
2022-09-18T16:36:50.726Z,99290.03
2022-09-18T16:39:25.292Z,99314.09
2022-09-18T16:41:53.972Z,99392.56
2022-09-18T16:44:22.122Z,99349.38
2022-09-18T16:46:53.690Z,99333.44
2022-09-18T16:49:26.522Z,99358.59
2022-09-18T16:51:55.665Z,99371.03
2022-09-18T16:54:24.172Z,99367.75
2022-09-18T16:56:56.976Z,99405.94
2022-09-18T16:59:30.377Z,99414.34
2022-09-18T17:02:04.134Z,99395.56
2022-09-18T17:04:34.151Z,99399.97
2022-09-18T17:07:03.531Z,99417.63
2022-09-18T17:09:32.664Z,99437.34
2022-09-18T17:12:00.584Z,99393.09
2022-09-18T17:14:28.854Z,99387.78
2022-09-18T17:16:56.986Z,99407.50
2022-09-18T17:19:24.789Z,99437.56
2022-09-18T17:21:53.358Z,99458.72
2022-09-18T17:24:25.772Z,99431.22
2022-09-18T17:26:54.219Z,99396.69
2022-09-18T17:29:22.643Z,99410.84
2022-09-18T17:31:52.234Z,99435.97
2022-09-18T17:34:22.198Z,99468.00
2022-09-18T17:36:50.125Z,99455.50
2022-09-18T17:39:21.373Z,99471.38
2022-09-18T17:41:50.168Z,99441.19
2022-09-18T17:44:18.004Z,99473.03
2022-09-18T17:46:51.300Z,99472.25
2022-09-18T17:49:20.066Z,99473.28
2022-09-18T17:51:49.528Z,99429.63
2022-09-18T17:54:18.286Z,99398.31
2022-09-18T17:56:46.511Z,99385.13
2022-09-18T17:59:15.616Z,99378.19
2022-09-18T18:01:46.479Z,99398.53
2022-09-18T18:04:16.193Z,99368.19
2022-09-18T18:06:50.595Z,99322.72
2022-09-18T18:09:19.315Z,99314.84
2022-09-18T18:11:48.257Z,99315.78
2022-09-18T18:14:16.814Z,99290.88
2022-09-18T18:16:49.772Z,99292.66
2022-09-18T18:19:22.274Z,99289.25
2022-09-18T18:21:50.529Z,99266.16
2022-09-18T18:24:19.063Z,99268.88
2022-09-18T18:26:48.603Z,99261.91
2022-09-18T18:29:18.799Z,99294.91
2022-09-18T18:31:49.235Z,99303.00
2022-09-18T18:34:22.265Z,99336.75
2022-09-18T18:36:50.608Z,99336.03
2022-09-18T18:39:20.260Z,99375.97
2022-09-18T18:41:49.852Z,99409.72
2022-09-18T18:44:18.563Z,99430.09
2022-09-18T18:46:46.775Z,99460.44
2022-09-18T18:49:16.261Z,99467.66
2022-09-18T18:51:52.112Z,99470.38
2022-09-18T18:54:22.074Z,99465.91
2022-09-18T18:56:50.406Z,99490.66
2022-09-18T18:59:19.891Z,99474.75
2022-09-18T19:01:48.216Z,99457.94
2022-09-18T19:04:19.239Z,99444.56
2022-09-18T19:06:49.073Z,99456.22
2022-09-18T19:09:22.608Z,99450.94
2022-09-18T19:11:52.942Z,99457.09
2022-09-18T19:14:29.127Z,99456.28
2022-09-18T19:16:57.892Z,99462.44
2022-09-18T19:19:28.408Z,99448.19
2022-09-18T19:22:00.609Z,99427.94
2022-09-18T19:24:30.117Z,99433.19
2022-09-18T19:26:58.927Z,99433.25
2022-09-18T19:29:29.525Z,99423.50
2022-09-18T19:32:00.345Z,99449.38
2022-09-18T19:34:28.587Z,99462.72
2022-09-18T19:36:56.683Z,99475.09
2022-09-18T19:39:24.735Z,99477.84
2022-09-18T19:41:55.301Z,99493.69
2022-09-18T19:44:34.354Z,99511.66
2022-09-18T19:47:16.490Z,99519.56
2022-09-18T19:49:44.651Z,99509.81
2022-09-18T19:52:21.198Z,99520.50
2022-09-18T19:54:51.620Z,99508.88
2022-09-18T19:57:20.870Z,99515.09
2022-09-18T19:59:52.619Z,99504.50
2022-09-18T20:02:21.786Z,99502.56
2022-09-18T20:04:49.784Z,99491.09
2022-09-18T20:07:17.691Z,99494.63
2022-09-18T20:09:45.529Z,99473.06
2022-09-18T20:12:14.007Z,99460.63
2022-09-18T20:14:42.097Z,99442.97
2022-09-18T20:17:11.316Z,99433.19
2022-09-18T20:19:39.201Z,99451.59
2022-09-18T20:22:07.535Z,99448.09
2022-09-18T20:24:35.156Z,99424.94
2022-09-18T20:27:03.184Z,99436.59
2022-09-18T20:29:31.230Z,99452.53
2022-09-18T20:31:59.259Z,99458.75
2022-09-18T20:34:27.927Z,99465.91
2022-09-18T20:36:55.778Z,99474.78
2022-09-18T20:39:23.573Z,99509.47
2022-09-18T20:41:51.498Z,99548.66
2022-09-18T20:44:19.699Z,99590.25
2022-09-18T20:46:50.499Z,99609.78
2022-09-18T20:49:18.329Z,99631.03
2022-09-18T20:51:46.590Z,99653.19
2022-09-18T20:54:20.845Z,99676.28
2022-09-18T20:56:49.080Z,99694.03
2022-09-18T20:59:45.734Z,99720.59
2022-09-18T21:02:17.776Z,99756.13
2022-09-18T21:04:54.533Z,99770.28
2022-09-18T21:07:41.580Z,99803.00
2022-09-18T21:10:18.316Z,99819.78
2022-09-18T21:12:47.658Z,99841.88
2022-09-18T21:15:15.584Z,99856.91
2022-09-18T21:17:43.762Z,99891.34
2022-09-18T21:20:12.180Z,99934.63
2022-09-18T21:23:00.424Z,99952.34
2022-09-18T21:25:31.050Z,99988.34
2022-09-18T21:27:59.435Z,100013.75
2022-09-18T21:30:27.326Z,100060.47
2022-09-18T21:32:55.955Z,100092.19
2022-09-18T21:35:23.868Z,100101.03
2022-09-18T21:37:52.121Z,100126.56
2022-09-18T21:40:20.509Z,100133.56
2022-09-18T21:42:48.350Z,100153.84
2022-09-18T21:45:20.748Z,100153.78
2022-09-18T21:47:50.283Z,100163.56
2022-09-18T21:50:19.269Z,100160.00
2022-09-18T21:52:47.080Z,100173.25
2022-09-18T21:55:14.992Z,100165.22
2022-09-18T21:57:43.172Z,100174.09
2022-09-18T22:00:12.431Z,100187.28
2022-09-18T22:02:43.336Z,100185.47
2022-09-18T22:05:12.321Z,100191.66
2022-09-18T22:07:40.973Z,100213.66
2022-09-18T22:10:09.445Z,100233.16
2022-09-18T22:12:39.030Z,100220.75
2022-09-18T22:15:07.804Z,100225.09
2022-09-18T22:17:35.666Z,100240.97
2022-09-18T22:20:03.989Z,100245.38
2022-09-18T22:22:34.214Z,100245.28
2022-09-18T22:25:03.292Z,100232.97
2022-09-18T22:27:31.096Z,100248.88
2022-09-18T22:29:59.009Z,100237.28
2022-09-18T22:32:27.177Z,100242.66
2022-09-18T22:34:55.960Z,100251.50
2022-09-18T22:37:23.947Z,100264.69
2022-09-18T22:39:51.907Z,100281.38
2022-09-18T22:42:19.981Z,100292.78
2022-09-18T22:44:48.002Z,100316.41
2022-09-18T22:47:15.967Z,100310.19
2022-09-18T22:49:43.877Z,100324.19
2022-09-18T22:52:11.769Z,100331.03
2022-09-18T22:54:39.713Z,100341.66
2022-09-18T22:57:07.561Z,100338.13
2022-09-18T22:59:35.614Z,100336.19
2022-09-18T23:02:08.109Z,100345.84
2022-09-18T23:04:36.755Z,100351.88
2022-09-18T23:07:04.705Z,100346.50
2022-09-18T23:09:32.642Z,100312.31
2022-09-18T23:12:00.509Z,100299.06
2022-09-18T23:14:31.271Z,100280.72
2022-09-18T23:17:00.860Z,100264.81
2022-09-18T23:19:34.351Z,100248.19
2022-09-18T23:22:02.659Z,100249.88
2022-09-18T23:24:31.860Z,100229.75
2022-09-18T23:27:00.485Z,100229.53
2022-09-18T23:29:31.968Z,100223.28
2022-09-18T23:32:00.518Z,100219.84
2022-09-18T23:34:31.776Z,100216.16
2022-09-18T23:37:00.663Z,100203.03
2022-09-18T23:39:32.482Z,100197.94
2022-09-18T23:42:02.721Z,100201.41
2022-09-18T23:44:31.706Z,100198.66
2022-09-18T23:47:00.545Z,100186.38
2022-09-18T23:49:29.685Z,100188.88
2022-09-18T23:51:59.513Z,100170.53
2022-09-18T23:54:31.920Z,100176.78
2022-09-18T23:56:59.751Z,100177.44
2022-09-18T23:59:28.516Z,100196.84
